Time;durP1;ratioP1;P1;durP2;ratioP2;P2;SDS_P1;SDS_P2;PMS_P1;PMS_P2;Temp;Humidity;BMP_temperature;BMP_pressure;BME280_temperature;BME280_humidity;BME280_pressure;Samples;Min_cycle;Max_cycle;Signal;HPM_P1;HPM_P2
2022/08/30 00:02:58;;;;;;;4.13;2.30;;;17.60;73.60;;;;;;6243026;23;20126;-67
2022/08/30 00:05:23;;;;;;;3.17;2.00;;;17.60;73.50;;;;;;6242891;23;20007;-67
2022/08/30 00:07:49;;;;;;;2.17;1.70;;;17.60;73.40;;;;;;6243288;23;20079;-66
2022/08/30 00:10:15;;;;;;;2.45;1.70;;;17.60;73.40;;;;;;6245489;23;20054;-66
2022/08/30 00:12:42;;;;;;;3.33;1.92;;;17.50;73.50;;;;;;6244097;23;20000;-67
2022/08/30 00:15:10;;;;;;;3.13;1.90;;;17.50;73.60;;;;;;6243916;23;19996;-66
2022/08/30 00:17:35;;;;;;;2.88;2.00;;;17.50;73.60;;;;;;6244509;23;20000;-67
2022/08/30 00:20:04;;;;;;;2.75;2.00;;;17.50;73.90;;;;;;6241527;23;20011;-67
2022/08/30 00:22:31;;;;;;;4.13;2.20;;;17.50;73.90;;;;;;6244995;23;20004;-66
2022/08/30 00:24:59;;;;;;;3.15;2.17;;;17.40;74.20;;;;;;6243903;23;20441;-66
2022/08/30 00:27:28;;;;;;;3.10;2.13;;;17.40;74.30;;;;;;6243837;23;20012;-67
2022/08/30 00:29:54;;;;;;;2.90;2.20;;;17.40;74.30;;;;;;6243671;23;20074;-66
2022/08/30 00:32:20;;;;;;;2.60;1.88;;;17.30;74.30;;;;;;6243473;23;20000;-67
2022/08/30 00:34:47;;;;;;;2.90;1.98;;;17.30;74.50;;;;;;6242654;23;20413;-68
2022/08/30 00:37:13;;;;;;;2.95;2.20;;;17.30;74.50;;;;;;6243151;23;19996;-68
2022/08/30 00:39:39;;;;;;;2.50;2.03;;;17.30;74.50;;;;;;6243988;23;20070;-68
2022/08/30 00:42:06;;;;;;;3.45;1.80;;;17.30;74.50;;;;;;6241803;23;20011;-68
2022/08/30 00:44:31;;;;;;;3.10;2.30;;;17.30;74.60;;;;;;6242873;23;20000;-68
2022/08/30 00:46:57;;;;;;;2.17;1.95;;;17.30;74.60;;;;;;6242927;23;20000;-68
2022/08/30 00:49:23;;;;;;;2.65;2.30;;;17.30;74.60;;;;;;6242656;23;20042;-69
2022/08/30 00:51:49;;;;;;;2.78;2.25;;;17.30;74.70;;;;;;6242074;23;20007;-68
2022/08/30 00:54:15;;;;;;;3.72;2.22;;;17.30;74.80;;;;;;6242498;23;20000;-68
2022/08/30 00:56:41;;;;;;;3.90;2.40;;;17.30;74.70;;;;;;6242693;23;20054;-67
2022/08/30 00:59:07;;;;;;;3.45;2.13;;;17.30;74.70;;;;;;6242795;23;20000;-68
2022/08/30 01:01:34;;;;;;;3.33;2.10;;;17.30;74.70;;;;;;6242913;23;20000;-67
2022/08/30 01:04:01;;;;;;;3.33;2.22;;;17.30;74.80;;;;;;6242163;23;20000;-68
2022/08/30 01:06:27;;;;;;;2.65;2.22;;;17.30;74.80;;;;;;6241438;23;20004;-68
2022/08/30 01:08:52;;;;;;;2.90;2.50;;;17.30;74.90;;;;;;6241803;23;20014;-68
2022/08/30 01:11:22;;;;;;;3.47;2.40;;;17.30;74.90;;;;;;6241222;23;20038;-68
2022/08/30 01:13:50;;;;;;;4.70;2.83;;;17.30;75.00;;;;;;6241689;23;20000;-68
2022/08/30 01:16:17;;;;;;;3.03;2.38;;;17.20;75.10;;;;;;6242182;23;20000;-67
2022/08/30 01:18:43;;;;;;;4.68;2.80;;;17.20;75.20;;;;;;6242367;23;20000;-68
2022/08/30 01:21:34;;;;;;;3.33;2.80;;;17.30;75.30;;;;;;6242486;23;20008;-68
2022/08/30 01:24:01;;;;;;;2.95;2.55;;;17.20;75.40;;;;;;6242285;23;20074;-67
2022/08/30 01:26:29;;;;;;;5.60;2.80;;;17.20;75.50;;;;;;6242328;23;20066;-67
2022/08/30 01:29:01;;;;;;;3.05;2.55;;;17.20;75.60;;;;;;6242831;23;20004;-67
2022/08/30 01:31:27;;;;;;;3.08;2.42;;;17.20;75.60;;;;;;6242637;23;20000;-68
2022/08/30 01:33:52;;;;;;;3.00;2.70;;;17.20;75.60;;;;;;6242123;23;20000;-68
2022/08/30 01:36:19;;;;;;;4.88;2.90;;;17.20;75.80;;;;;;6241958;23;20004;-68
2022/08/30 01:38:51;;;;;;;3.20;2.88;;;17.10;75.90;;;;;;6242768;23;20000;-68
2022/08/30 01:41:37;;;;;;;4.38;3.08;;;17.10;75.90;;;;;;6242033;23;20527;-68
2022/08/30 01:44:07;;;;;;;4.00;2.95;;;17.10;75.80;;;;;;6243504;23;20115;-67
2022/08/30 01:46:36;;;;;;;2.80;2.50;;;17.10;75.90;;;;;;6244004;22;20081;-68
2022/08/30 01:49:09;;;;;;;4.78;3.30;;;17.10;75.80;;;;;;6243942;23;20007;-66
2022/08/30 01:51:35;;;;;;;3.50;3.00;;;17.10;75.90;;;;;;6242558;23;20428;-66
2022/08/30 01:54:01;;;;;;;2.90;2.63;;;17.10;75.90;;;;;;6244137;23;20368;-67
2022/08/30 01:56:28;;;;;;;3.20;2.70;;;17.10;76.00;;;;;;6244031;23;20046;-67
2022/08/30 01:58:54;;;;;;;4.18;2.88;;;17.10;76.10;;;;;;6243723;22;20069;-67
2022/08/30 02:01:23;;;;;;;3.20;2.83;;;17.00;76.10;;;;;;6243632;23;20057;-67
2022/08/30 02:03:48;;;;;;;3.22;2.90;;;17.00;76.10;;;;;;6243639;23;20440;-68
2022/08/30 02:06:17;;;;;;;3.50;3.20;;;17.00;76.20;;;;;;6244229;23;20000;-68
2022/08/30 02:08:44;;;;;;;3.30;3.00;;;17.00;76.40;;;;;;6244441;22;20420;-68
2022/08/30 02:11:11;;;;;;;3.33;2.88;;;17.00;76.50;;;;;;6243983;23;20011;-67
2022/08/30 02:13:39;;;;;;;3.65;2.88;;;16.90;76.40;;;;;;6242805;23;19996;-68
2022/08/30 02:16:07;;;;;;;4.00;3.60;;;16.90;76.40;;;;;;6243811;23;20007;-68
2022/08/30 02:18:34;;;;;;;3.88;3.35;;;16.90;77.10;;;;;;6244201;23;19996;-68
2022/08/30 02:20:59;;;;;;;3.90;3.10;;;16.90;76.60;;;;;;6242206;23;20027;-68
2022/08/30 02:23:26;;;;;;;3.85;3.22;;;16.90;76.70;;;;;;6243249;23;20428;-69
2022/08/30 02:25:52;;;;;;;3.60;3.22;;;16.90;76.70;;;;;;6243287;23;20008;-69
2022/08/30 02:28:18;;;;;;;2.97;2.65;;;16.80;76.80;;;;;;6243253;23;20047;-69
2022/08/30 02:30:45;;;;;;;4.28;3.75;;;16.90;76.90;;;;;;6243081;23;20392;-69
2022/08/30 02:33:11;;;;;;;4.53;3.25;;;16.80;77.20;;;;;;6243510;23;19997;-68
2022/08/30 02:35:36;;;;;;;3.45;2.97;;;16.80;77.20;;;;;;6243720;23;19996;-68
2022/08/30 02:38:03;;;;;;;4.15;3.45;;;16.80;77.10;;;;;;6243609;23;20001;-68
2022/08/30 02:40:29;;;;;;;3.95;2.92;;;16.80;77.10;;;;;;6243543;23;20007;-68
2022/08/30 02:42:55;;;;;;;3.53;2.70;;;16.80;77.30;;;;;;6243668;23;20004;-68
2022/08/30 02:45:21;;;;;;;4.10;3.50;;;16.70;77.30;;;;;;6243611;23;20036;-67
2022/08/30 02:47:47;;;;;;;4.70;3.60;;;16.70;77.60;;;;;;6244254;23;20007;-68
2022/08/30 02:50:13;;;;;;;4.57;3.40;;;16.70;77.60;;;;;;6244252;23;20008;-68
2022/08/30 02:52:38;;;;;;;5.07;4.13;;;16.70;77.70;;;;;;6243287;23;20315;-68
2022/08/30 02:55:05;;;;;;;4.30;3.63;;;16.70;77.60;;;;;;6243720;23;19997;-67
2022/08/30 02:57:31;;;;;;;5.50;3.28;;;16.70;77.70;;;;;;6243954;23;20054;-67
2022/08/30 02:59:57;;;;;;;4.90;3.40;;;16.70;77.70;;;;;;6245821;23;20000;-66
2022/08/30 03:02:23;;;;;;;3.58;3.20;;;16.70;77.50;;;;;;6244978;23;20398;-68
2022/08/30 03:04:49;;;;;;;6.10;3.80;;;16.70;77.50;;;;;;6245837;23;19996;-67
2022/08/30 03:07:16;;;;;;;4.47;3.80;;;16.60;77.60;;;;;;6243875;23;20001;-67
2022/08/30 03:09:41;;;;;;;4.05;3.60;;;16.60;77.70;;;;;;6243851;23;20043;-67
2022/08/30 03:12:08;;;;;;;4.50;3.67;;;16.60;77.70;;;;;;6243503;23;20051;-67
2022/08/30 03:14:36;;;;;;;6.13;3.78;;;16.60;77.70;;;;;;6244756;23;20000;-68
2022/08/30 03:17:06;;;;;;;5.30;3.72;;;16.50;77.80;;;;;;6243262;23;20000;-66
2022/08/30 03:19:33;;;;;;;4.10;3.45;;;16.50;77.80;;;;;;6243428;23;20429;-68
2022/08/30 03:21:59;;;;;;;4.32;3.92;;;16.50;77.90;;;;;;6242756;23;20000;-68
2022/08/30 03:24:25;;;;;;;5.80;4.13;;;16.40;78.10;;;;;;6243284;23;20054;-68
2022/08/30 03:26:51;;;;;;;4.93;4.25;;;16.40;78.30;;;;;;6242751;23;20337;-68
2022/08/30 03:29:16;;;;;;;4.05;3.65;;;16.40;78.40;;;;;;6242924;23;20000;-68
2022/08/30 03:31:42;;;;;;;4.40;3.65;;;16.30;78.40;;;;;;6242951;23;20008;-67
2022/08/30 03:34:09;;;;;;;4.65;4.15;;;16.30;78.60;;;;;;6243963;23;20000;-68
2022/08/30 03:36:36;;;;;;;7.00;4.55;;;16.30;78.60;;;;;;6243579;23;20341;-68
2022/08/30 03:39:03;;;;;;;5.53;4.35;;;16.30;78.60;;;;;;6243935;23;20008;-68
2022/08/30 03:41:31;;;;;;;4.10;3.70;;;16.30;78.60;;;;;;6243735;23;20433;-68
2022/08/30 03:43:57;;;;;;;4.68;4.13;;;16.30;78.60;;;;;;6243658;23;20514;-68
2022/08/30 03:46:22;;;;;;;5.47;4.80;;;16.20;78.60;;;;;;6243756;23;20007;-68
2022/08/30 03:48:48;;;;;;;5.18;4.32;;;16.30;78.70;;;;;;6241849;23;20000;-67
2022/08/30 03:51:13;;;;;;;5.05;4.30;;;16.20;78.80;;;;;;6243703;23;20079;-68
2022/08/30 03:53:39;;;;;;;5.05;4.45;;;16.20;78.80;;;;;;6243095;23;20000;-67
2022/08/30 03:56:05;;;;;;;4.90;4.40;;;16.20;79.40;;;;;;6242514;23;20449;-68
2022/08/30 03:58:31;;;;;;;4.50;4.10;;;16.20;78.80;;;;;;6243678;23;20003;-68
2022/08/30 04:00:57;;;;;;;4.72;3.80;;;16.20;78.90;;;;;;6242903;23;20004;-68
2022/08/30 04:03:24;;;;;;;6.30;4.80;;;16.20;79.00;;;;;;6242468;23;20311;-68
2022/08/30 04:05:52;;;;;;;4.93;4.38;;;16.20;79.20;;;;;;6242567;23;20023;-68
2022/08/30 04:08:19;;;;;;;4.80;4.05;;;16.10;79.30;;;;;;6242969;23;20092;-68
2022/08/30 04:10:46;;;;;;;4.93;4.18;;;16.10;79.20;;;;;;6242833;23;20054;-68
2022/08/30 04:13:12;;;;;;;4.68;4.13;;;16.10;79.20;;;;;;6243058;23;20050;-68
2022/08/30 04:15:38;;;;;;;5.18;4.68;;;16.10;79.10;;;;;;6242942;23;20000;-68
2022/08/30 04:18:03;;;;;;;4.80;4.30;;;16.10;79.30;;;;;;6243503;23;20340;-68
2022/08/30 04:20:29;;;;;;;5.03;4.53;;;16.00;79.50;;;;;;6243173;23;20004;-67
2022/08/30 04:22:54;;;;;;;4.88;4.38;;;16.00;79.60;;;;;;6243395;23;20004;-67
2022/08/30 04:25:20;;;;;;;7.28;4.00;;;16.10;79.50;;;;;;6241759;23;20027;-68
2022/08/30 04:27:45;;;;;;;5.13;4.63;;;16.10;79.50;;;;;;6243014;23;20728;-68
2022/08/30 04:30:13;;;;;;;7.03;6.18;;;16.00;79.50;;;;;;6240766;23;20039;-68
2022/08/30 04:32:38;;;;;;;4.75;4.25;;;16.00;80.10;;;;;;6242684;23;20305;-68
2022/08/30 04:35:05;;;;;;;4.80;4.18;;;15.90;80.00;;;;;;6241123;23;20043;-69
2022/08/30 04:37:30;;;;;;;5.80;4.45;;;16.00;80.00;;;;;;6242923;23;20035;-67
2022/08/30 04:39:59;;;;;;;4.40;4.00;;;16.00;79.80;;;;;;6243626;23;19996;-67
2022/08/30 04:42:29;;;;;;;6.10;4.82;;;16.00;79.60;;;;;;6240943;23;19996;-68
2022/08/30 04:44:54;;;;;;;4.28;3.88;;;16.00;79.50;;;;;;6242555;23;20000;-68
2022/08/30 04:47:20;;;;;;;5.80;5.03;;;16.00;79.50;;;;;;6242790;23;20007;-68
2022/08/30 04:49:45;;;;;;;5.60;4.70;;;16.00;79.60;;;;;;6242575;23;20420;-68
2022/08/30 04:52:11;;;;;;;5.00;4.30;;;16.00;79.60;;;;;;6242854;23;20012;-68
2022/08/30 04:54:37;;;;;;;4.70;4.28;;;16.00;79.60;;;;;;6240106;23;20441;-68
2022/08/30 04:57:04;;;;;;;4.80;3.90;;;16.00;79.40;;;;;;6242138;23;20003;-68
2022/08/30 04:59:30;;;;;;;5.65;4.35;;;16.00;79.20;;;;;;6242369;23;20023;-67
2022/08/30 05:01:55;;;;;;;5.03;3.53;;;16.10;79.10;;;;;;6241743;23;20046;-67
2022/08/30 05:04:21;;;;;;;5.60;4.28;;;16.10;78.90;;;;;;6243010;23;20012;-67
2022/08/30 05:06:48;;;;;;;5.32;3.97;;;16.10;78.70;;;;;;6242046;23;20004;-67
2022/08/30 05:09:14;;;;;;;4.40;3.80;;;16.10;78.70;;;;;;6242811;23;20028;-67
2022/08/30 05:11:42;;;;;;;4.47;4.07;;;16.20;78.60;;;;;;6242823;23;20000;-67
2022/08/30 05:14:08;;;;;;;3.92;3.42;;;16.20;78.50;;;;;;6242590;23;19996;-67
2022/08/30 05:16:33;;;;;;;4.10;3.53;;;16.20;78.40;;;;;;6240807;23;20004;-67
2022/08/30 05:18:59;;;;;;;5.20;4.70;;;16.20;78.20;;;;;;6241036;23;20495;-67
2022/08/30 05:21:27;;;;;;;5.70;4.63;;;16.20;78.30;;;;;;6242582;23;20004;-67
2022/08/30 05:23:57;;;;;;;4.28;3.80;;;16.20;78.40;;;;;;6242319;23;20079;-67
2022/08/30 05:26:26;;;;;;;5.25;3.72;;;16.20;78.30;;;;;;6242240;23;20014;-68
2022/08/30 05:28:52;;;;;;;5.15;4.50;;;16.30;78.30;;;;;;6242136;23;20027;-67
2022/08/30 05:31:28;;;;;;;4.75;4.05;;;16.40;78.40;;;;;;6242405;23;20342;-68
2022/08/30 05:33:54;;;;;;;5.15;4.40;;;17.10;77.40;;;;;;6243091;23;20001;-68
2022/08/30 05:36:24;;;;;;;4.95;4.45;;;17.60;75.70;;;;;;6242430;23;20438;-67
2022/08/30 05:38:50;;;;;;;3.70;3.10;;;18.20;74.20;;;;;;6242738;23;20460;-67
2022/08/30 05:41:18;;;;;;;4.30;3.90;;;18.80;73.20;;;;;;6242361;23;20004;-67
2022/08/30 05:43:43;;;;;;;5.45;4.18;;;18.90;70.50;;;;;;6242490;23;20378;-68
2022/08/30 05:46:11;;;;;;;3.55;3.25;;;18.70;70.60;;;;;;6242903;23;20005;-68
2022/08/30 05:48:37;;;;;;;3.85;3.40;;;18.30;71.40;;;;;;6243306;22;20008;-67
2022/08/30 05:51:10;;;;;;;3.08;2.75;;;18.00;72.30;;;;;;6242595;22;20004;-68
2022/08/30 05:53:36;;;;;;;4.28;3.88;;;17.80;72.90;;;;;;6239713;23;20322;-69
2022/08/30 05:56:03;;;;;;;5.18;3.50;;;17.50;73.60;;;;;;6239542;23;20015;-67
2022/08/30 05:58:29;;;;;;;5.00;3.90;;;17.30;74.40;;;;;;6242825;23;19996;-67
2022/08/30 06:00:55;;;;;;;4.43;3.78;;;17.20;74.90;;;;;;6242946;23;20008;-67
2022/08/30 06:03:20;;;;;;;4.45;3.90;;;17.20;75.00;;;;;;6242390;23;20065;-68
2022/08/30 06:05:46;;;;;;;4.63;4.18;;;17.30;75.20;;;;;;6241099;23;20504;-67
2022/08/30 06:08:12;;;;;;;4.55;3.63;;;18.00;74.90;;;;;;6241734;23;20386;-67
2022/08/30 06:10:37;;;;;;;5.03;3.85;;;19.40;71.80;;;;;;6241339;23;20456;-67
2022/08/30 06:13:03;;;;;;;3.00;2.70;;;20.40;68.50;;;;;;6239846;23;20580;-67
2022/08/30 06:15:28;;;;;;;4.50;3.70;;;21.40;65.30;;;;;;6241444;23;20322;-67
2022/08/30 06:17:55;;;;;;;4.63;3.53;;;21.80;62.80;;;;;;6242323;23;19996;-67
2022/08/30 06:20:20;;;;;;;3.17;2.70;;;22.10;61.50;;;;;;6241914;23;20050;-67
2022/08/30 06:22:46;;;;;;;3.13;2.83;;;22.90;60.10;;;;;;6242145;23;20047;-68
2022/08/30 06:25:11;;;;;;;3.60;2.70;;;23.30;58.70;;;;;;6248286;23;20011;-68
2022/08/30 06:27:37;;;;;;;3.47;2.70;;;24.00;57.70;;;;;;6250853;23;20011;-67
2022/08/30 06:30:07;;;;;;;3.20;2.90;;;24.60;56.10;;;;;;6244180;23;20349;-68
2022/08/30 06:32:32;;;;;;;3.65;2.50;;;24.50;54.00;;;;;;6244277;23;20007;-67
2022/08/30 06:34:58;;;;;;;3.08;2.30;;;24.20;55.20;;;;;;6244860;23;20000;-67
2022/08/30 06:37:23;;;;;;;3.28;2.30;;;24.90;54.30;;;;;;6243769;23;20007;-68
2022/08/30 06:39:49;;;;;;;2.58;2.20;;;25.00;53.10;;;;;;6243662;23;20451;-67
2022/08/30 06:42:15;;;;;;;2.40;2.20;;;25.30;53.10;;;;;;6241975;23;20004;-67
2022/08/30 06:44:40;;;;;;;2.28;2.08;;;26.10;52.40;;;;;;6242813;23;20004;-67
2022/08/30 06:47:06;;;;;;;3.20;2.90;;;26.60;49.90;;;;;;6242117;23;20000;-67
2022/08/30 06:49:32;;;;;;;2.88;2.58;;;26.20;49.20;;;;;;6243296;23;20407;-68
2022/08/30 06:51:57;;;;;;;1.98;1.77;;;26.00;49.90;;;;;;6241910;23;20010;-66
2022/08/30 06:54:23;;;;;;;2.33;2.00;;;26.60;50.00;;;;;;6243491;23;20337;-69
2022/08/30 06:56:48;;;;;;;2.10;1.90;;;26.90;49.30;;;;;;6242369;23;20000;-69
2022/08/30 06:59:14;;;;;;;1.73;1.60;;;27.40;48.90;;;;;;6242812;23;20003;-66
2022/08/30 07:01:40;;;;;;;2.28;1.63;;;28.10;47.90;;;;;;6243175;23;20011;-67
2022/08/30 07:04:05;;;;;;;3.08;1.75;;;28.40;46.50;;;;;;6239816;23;20004;-67
2022/08/30 07:06:32;;;;;;;1.95;1.60;;;28.40;46.50;;;;;;6242162;23;20083;-67
2022/08/30 07:08:57;;;;;;;2.95;1.25;;;28.90;46.10;;;;;;6243015;23;20004;-67
2022/08/30 07:11:32;;;;;;;2.13;1.92;;;29.10;45.60;;;;;;6242820;23;20067;-67
2022/08/30 07:13:59;;;;;;;6.15;2.00;;;28.70;43.90;;;;;;6244634;23;20071;-67
2022/08/30 07:16:25;;;;;;;2.72;1.77;;;28.20;44.80;;;;;;6242650;23;20027;-68
2022/08/30 07:18:53;;;;;;;3.90;2.05;;;28.20;44.70;;;;;;6242860;23;20020;-68
2022/08/30 07:21:23;;;;;;;2.80;1.90;;;28.20;44.10;;;;;;6242395;23;20004;-68
2022/08/30 07:23:49;;;;;;;2.30;2.10;;;28.40;44.30;;;;;;6242889;23;20003;-67
2022/08/30 07:26:19;;;;;;;2.05;1.50;;;28.00;43.60;;;;;;6248000;23;20078;-67
2022/08/30 07:28:45;;;;;;;2.25;1.63;;;28.00;44.80;;;;;;6242687;23;20455;-67
2022/08/30 07:31:13;;;;;;;1.70;1.20;;;28.80;44.30;;;;;;6240337;23;20083;-67
2022/08/30 07:33:39;;;;;;;1.63;1.40;;;29.30;43.60;;;;;;6241297;23;20039;-68
2022/08/30 07:36:06;;;;;;;1.20;1.00;;;29.50;42.50;;;;;;6245566;23;19996;-68
2022/08/30 07:38:31;;;;;;;3.05;1.50;;;29.90;42.30;;;;;;6240828;23;19996;-67
2022/08/30 07:41:00;;;;;;;1.67;1.25;;;29.70;41.20;;;;;;6241801;23;20000;-68
2022/08/30 07:43:27;;;;;;;1.90;1.20;;;29.70;41.40;;;;;;6240705;23;20004;-68
2022/08/30 07:45:53;;;;;;;1.65;1.13;;;29.80;41.40;;;;;;6242613;23;20043;-67
2022/08/30 07:48:18;;;;;;;1.80;1.40;;;29.90;40.50;;;;;;6242820;23;20440;-68
2022/08/30 07:50:45;;;;;;;3.30;1.15;;;28.90;39.90;;;;;;6238037;23;20058;-67
2022/08/30 07:53:11;;;;;;;3.25;1.20;;;28.20;41.60;;;;;;6241844;23;20001;-68
2022/08/30 07:55:37;;;;;;;2.30;0.98;;;28.20;41.60;;;;;;6241648;23;20134;-68
2022/08/30 07:58:03;;;;;;;1.75;0.90;;;28.10;42.40;;;;;;6241112;23;20437;-68
2022/08/30 08:00:28;;;;;;;2.65;1.05;;;28.80;41.80;;;;;;6241667;23;20046;-67
2022/08/30 08:02:54;;;;;;;2.67;0.75;;;29.20;40.70;;;;;;6241803;23;20340;-67
2022/08/30 08:05:20;;;;;;;6.18;1.30;;;29.40;40.80;;;;;;6241820;23;20691;-68
2022/08/30 08:07:45;;;;;;;2.60;1.30;;;29.30;39.30;;;;;;6242930;23;20318;-67
2022/08/30 08:10:12;;;;;;;2.25;1.13;;;28.50;39.60;;;;;;6241073;23;20193;-67
2022/08/30 08:12:38;;;;;;;3.42;1.17;;;28.20;40.60;;;;;;6241433;23;20011;-68
2022/08/30 08:15:04;;;;;;;2.97;1.40;;;27.60;40.00;;;;;;6241587;23;20322;-68
2022/08/30 08:17:30;;;;;;;2.47;1.40;;;27.00;41.20;;;;;;6241438;23;20008;-67
2022/08/30 08:19:55;;;;;;;2.33;1.10;;;26.90;41.50;;;;;;6241579;23;20000;-67
2022/08/30 08:22:21;;;;;;;0.90;0.80;;;26.70;41.80;;;;;;6240767;23;20035;-67
2022/08/30 08:24:48;;;;;;;1.55;0.90;;;27.60;41.50;;;;;;6239945;23;20043;-67
2022/08/30 08:27:14;;;;;;;1.25;0.70;;;27.80;40.40;;;;;;6241935;23;20074;-68
2022/08/30 08:29:39;;;;;;;2.45;1.02;;;27.50;40.10;;;;;;6239571;23;20457;-67
2022/08/30 08:32:05;;;;;;;5.70;1.10;;;26.90;40.10;;;;;;6241851;23;20083;-67
2022/08/30 08:34:30;;;;;;;2.08;1.20;;;27.10;40.40;;;;;;6241249;23;20000;-68
2022/08/30 08:36:56;;;;;;;1.92;1.00;;;26.70;41.10;;;;;;6240276;23;20456;-67
2022/08/30 08:39:21;;;;;;;1.17;0.80;;;26.80;41.30;;;;;;6240985;23;20004;-67
2022/08/30 08:42:12;;;;;;;1.75;1.08;;;27.30;41.50;;;;;;6241050;23;20047;-68
2022/08/30 08:44:58;;;;;;;2.50;1.00;;;27.40;41.00;;;;;;6240070;23;20054;-67
2022/08/30 08:47:44;;;;;;;1.52;0.98;;;27.50;40.10;;;;;;6240903;23;20233;-68
2022/08/30 08:50:16;;;;;;;3.33;1.00;;;26.80;39.90;;;;;;6240488;23;20004;-67
2022/08/30 08:55:28;;;;;;;1.02;0.80;;;25.90;41.40;;;;;;6241449;23;20066;-67
2022/08/30 08:57:55;;;;;;;0.98;0.85;;;26.00;42.20;;;;;;6240523;23;20474;-68
2022/08/30 09:00:21;;;;;;;1.73;0.90;;;25.80;42.30;;;;;;6240504;23;20051;-69
2022/08/30 09:02:56;;;;;;;2.55;1.00;;;25.80;42.90;;;;;;6240800;23;20372;-68
2022/08/30 09:05:24;;;;;;;1.65;0.80;;;25.80;43.00;;;;;;6241275;23;20103;-67
2022/08/30 09:08:06;;;;;;;1.42;0.70;;;25.30;43.20;;;;;;6242001;23;20047;-67
2022/08/30 09:10:32;;;;;;;1.30;0.75;;;24.70;44.10;;;;;;6242070;23;20484;-67
2022/08/30 09:12:59;;;;;;;2.30;1.05;;;24.30;45.00;;;;;;6242553;23;20075;-67
2022/08/30 09:15:28;;;;;;;1.60;0.90;;;23.90;45.60;;;;;;6242604;23;20001;-68
2022/08/30 09:18:06;;;;;;;1.25;0.95;;;23.70;46.20;;;;;;6241599;23;20456;-68
2022/08/30 09:20:47;;;;;;;2.65;0.90;;;23.50;46.30;;;;;;6236352;23;20008;-67
2022/08/30 09:23:12;;;;;;;3.42;1.50;;;23.30;46.40;;;;;;6239354;23;20004;-66
2022/08/30 09:25:47;;;;;;;2.78;1.20;;;23.10;46.50;;;;;;6240644;23;20051;-67
2022/08/30 09:28:17;;;;;;;1.40;1.10;;;23.00;46.50;;;;;;6240742;23;20098;-67
2022/08/30 09:31:00;;;;;;;2.85;1.40;;;22.70;46.40;;;;;;6239910;23;20008;-67
2022/08/30 09:33:25;;;;;;;1.73;1.10;;;22.50;46.00;;;;;;6240680;23;20028;-67
2022/08/30 09:35:51;;;;;;;1.17;1.00;;;22.50;46.70;;;;;;6241206;23;20004;-67
2022/08/30 09:38:34;;;;;;;1.75;1.15;;;22.50;47.20;;;;;;6241398;23;20438;-67
2022/08/30 09:41:36;;;;;;;2.53;1.10;;;22.60;47.70;;;;;;6241334;23;20082;-67
2022/08/30 09:44:08;;;;;;;2.38;1.00;;;22.80;48.00;;;;;;6241496;22;20007;-67
2022/08/30 09:46:43;;;;;;;1.60;0.85;;;22.80;48.20;;;;;;6242472;23;20007;-67
2022/08/30 09:49:26;;;;;;;2.33;1.00;;;23.00;47.80;;;;;;6242112;23;20075;-67
2022/08/30 09:52:16;;;;;;;2.00;1.10;;;23.10;47.50;;;;;;6238738;23;20016;-67
2022/08/30 09:54:47;;;;;;;1.52;1.20;;;23.10;46.80;;;;;;6240209;23;20008;-67
2022/08/30 09:57:47;;;;;;;2.08;1.10;;;23.10;46.70;;;;;;6241353;23;20003;-67
2022/08/30 10:00:30;;;;;;;1.90;0.90;;;23.00;47.40;;;;;;6239588;23;20532;-67
2022/08/30 10:03:06;;;;;;;3.05;1.15;;;23.20;47.50;;;;;;6242894;23;20001;-67
2022/08/30 10:05:31;;;;;;;1.63;1.10;;;23.20;46.80;;;;;;6242385;23;20004;-67
2022/08/30 10:08:25;;;;;;;2.08;0.82;;;23.20;46.80;;;;;;6242776;23;20004;-67
2022/08/30 10:10:59;;;;;;;2.13;1.25;;;23.20;46.60;;;;;;6243651;23;20004;-67
2022/08/30 10:13:43;;;;;;;1.48;0.98;;;23.30;46.60;;;;;;6244987;23;20439;-67
2022/08/30 10:16:28;;;;;;;2.17;0.98;;;23.50;46.40;;;;;;6242320;23;20011;-67
2022/08/30 10:19:20;;;;;;;2.95;1.00;;;23.70;46.00;;;;;;6241382;23;20032;-68
2022/08/30 10:21:55;;;;;;;2.78;1.10;;;23.80;45.30;;;;;;6240266;23;20008;-67
2022/08/30 10:24:26;;;;;;;1.13;1.00;;;23.80;45.00;;;;;;6241906;23;20005;-67
2022/08/30 10:27:15;;;;;;;2.33;1.02;;;23.70;44.60;;;;;;6241464;23;20032;-68
2022/08/30 10:29:58;;;;;;;1.85;1.17;;;23.70;44.80;;;;;;6240587;23;20087;-68
2022/08/30 10:32:31;;;;;;;3.55;1.40;;;23.70;44.40;;;;;;6241243;23;20031;-68
2022/08/30 10:35:01;;;;;;;2.83;1.20;;;23.60;44.10;;;;;;6240427;23;20000;-67
2022/08/30 10:37:30;;;;;;;1.52;1.02;;;23.50;43.90;;;;;;6239815;23;20046;-66
2022/08/30 10:43:12;;;;;;;2.70;1.05;;;23.50;44.40;;;;;;6240086;23;20369;-67
2022/08/30 10:45:43;;;;;;;1.88;1.10;;;23.60;44.10;;;;;;6240434;23;20007;-67
2022/08/30 10:48:35;;;;;;;1.45;0.90;;;23.70;44.30;;;;;;6240900;23;20008;-67
2022/08/30 10:51:13;;;;;;;1.08;0.80;;;23.90;44.30;;;;;;6238977;23;20348;-67
2022/08/30 10:54:19;;;;;;;1.98;1.10;;;23.90;44.10;;;;;;6240279;23;20000;-68
2022/08/30 10:56:50;;;;;;;3.05;1.35;;;24.00;43.90;;;;;;6240247;23;20008;-67
2022/08/30 10:59:17;;;;;;;1.30;0.90;;;24.10;42.90;;;;;;6238074;23;20079;-67
2022/08/30 11:02:05;;;;;;;4.22;1.10;;;24.10;43.50;;;;;;6239412;23;20042;-67
2022/08/30 11:04:58;;;;;;;2.15;1.02;;;24.10;43.60;;;;;;6240435;23;20047;-67
2022/08/30 11:07:51;;;;;;;2.20;1.08;;;24.20;43.70;;;;;;6241078;23;20437;-68
2022/08/30 11:10:36;;;;;;;1.10;0.90;;;24.30;43.80;;;;;;6243744;23;20047;-65
2022/08/30 11:13:14;;;;;;;1.40;1.10;;;24.30;43.50;;;;;;6240325;23;20008;-67
2022/08/30 11:16:00;;;;;;;1.88;1.42;;;24.40;43.50;;;;;;6239329;23;20008;-67
2022/08/30 11:18:29;;;;;;;2.25;1.00;;;24.40;43.40;;;;;;6239296;23;20006;-67
2022/08/30 11:21:30;;;;;;;1.75;1.17;;;24.40;42.70;;;;;;6238979;23;20007;-67
2022/08/30 11:24:01;;;;;;;1.70;0.93;;;24.50;42.90;;;;;;6239218;22;20054;-66
2022/08/30 11:26:44;;;;;;;3.95;1.05;;;24.50;42.60;;;;;;6240395;23;20004;-67
2022/08/30 11:29:28;;;;;;;1.52;0.90;;;24.70;42.80;;;;;;6240537;23;20011;-67
2022/08/30 11:31:58;;;;;;;1.58;1.20;;;25.00;42.40;;;;;;6238673;23;20481;-67
2022/08/30 11:34:44;;;;;;;2.37;1.20;;;25.10;42.10;;;;;;6240056;23;20070;-66
2022/08/30 11:37:32;;;;;;;2.90;1.08;;;25.00;42.00;;;;;;6223395;22;20094;-67
2022/08/30 11:40:33;;;;;;;2.08;0.93;;;25.10;41.90;;;;;;6239889;23;20004;-67
2022/08/30 11:43:34;;;;;;;1.42;0.90;;;25.10;41.40;;;;;;6190329;23;20008;-67
2022/08/30 11:46:23;;;;;;;2.20;0.80;;;25.20;41.40;;;;;;6238214;23;20074;-67
2022/08/30 11:49:15;;;;;;;1.10;0.80;;;25.30;41.20;;;;;;6240963;23;20075;-66
2022/08/30 11:52:05;;;;;;;1.58;0.90;;;25.40;40.90;;;;;;6240355;23;20054;-67
2022/08/30 11:54:33;;;;;;;1.15;0.82;;;25.40;40.80;;;;;;6242813;23;19996;-67
2022/08/30 11:57:03;;;;;;;1.20;0.88;;;25.50;40.80;;;;;;6241384;23;20067;-67
2022/08/30 11:59:38;;;;;;;2.13;1.17;;;25.50;40.50;;;;;;6242659;23;20420;-67
2022/08/30 12:02:06;;;;;;;4.55;1.10;;;25.60;40.60;;;;;;6240791;23;20424;-67
2022/08/30 12:04:37;;;;;;;1.80;0.90;;;25.60;40.10;;;;;;6242455;23;20071;-67
2022/08/30 12:07:07;;;;;;;1.77;1.00;;;25.70;40.20;;;;;;6240766;23;20042;-67
2022/08/30 12:09:32;;;;;;;1.20;1.00;;;25.70;39.70;;;;;;6241067;23;20004;-67
2022/08/30 12:12:24;;;;;;;2.38;1.00;;;25.50;39.40;;;;;;6240120;23;20000;-67
2022/08/30 12:14:53;;;;;;;1.80;0.90;;;25.40;39.70;;;;;;6238942;23;20607;-67
2022/08/30 12:20:41;;;;;;;1.05;0.77;;;25.50;40.00;;;;;;6240149;23;20023;-68
2022/08/30 12:23:17;;;;;;;1.42;1.00;;;25.60;40.20;;;;;;6237913;23;20712;-67
2022/08/30 12:25:43;;;;;;;2.88;1.10;;;25.60;39.30;;;;;;6239841;23;20322;-68
2022/08/30 12:28:22;;;;;;;1.33;0.95;;;25.50;39.40;;;;;;6238883;23;20016;-68
2022/08/30 12:30:49;;;;;;;1.92;1.10;;;25.30;39.40;;;;;;6236926;23;20011;-68
2022/08/30 12:33:30;;;;;;;3.25;1.13;;;25.40;39.40;;;;;;6240587;23;20024;-67
2022/08/30 12:35:58;;;;;;;;;;;25.40;39.20;;;;;;6240597;22;20414;-67
2022/08/30 12:38:24;;;;;;;2.15;1.10;;;25.30;38.50;;;;;;6239162;23;19899;-67
2022/08/30 12:40:53;;;;;;;2.38;1.10;;;25.20;39.00;;;;;;6239487;23;20004;-67
2022/08/30 12:43:27;;;;;;;1.55;0.93;;;25.30;38.80;;;;;;6240748;23;20004;-68
2022/08/30 12:45:55;;;;;;;1.30;0.90;;;25.40;39.20;;;;;;6241145;23;20008;-68
2022/08/30 12:48:21;;;;;;;2.20;0.90;;;25.70;39.10;;;;;;6240933;22;20008;-66
2022/08/30 12:50:56;;;;;;;1.00;0.80;;;25.80;38.70;;;;;;6240040;23;20352;-66
2022/08/30 12:53:30;;;;;;;1.58;0.82;;;26.00;38.50;;;;;;6240688;23;20007;-67
2022/08/30 12:56:12;;;;;;;1.20;0.80;;;26.20;38.50;;;;;;6241198;23;20035;-67
2022/08/30 12:59:04;;;;;;;2.65;1.15;;;26.30;38.30;;;;;;6240863;23;20337;-67
2022/08/30 13:01:31;;;;;;;1.35;0.90;;;26.40;37.40;;;;;;6233269;23;20081;-67
2022/08/30 13:04:20;;;;;;;1.30;0.90;;;26.40;37.80;;;;;;6240651;23;20004;-66
2022/08/30 13:06:56;;;;;;;1.20;0.90;;;26.50;37.80;;;;;;6241830;23;20479;-66
2022/08/30 13:09:36;;;;;;;2.30;1.00;;;26.30;37.10;;;;;;6240574;23;20065;-67
2022/08/30 13:12:05;;;;;;;1.55;1.00;;;26.10;37.10;;;;;;6240375;23;20012;-67
2022/08/30 13:14:35;;;;;;;2.80;1.35;;;26.00;38.30;;;;;;6241200;23;20077;-67